sensor_id;sensor_type;location;lat;lon;timestamp;P1;durP1;ratioP1;P2;durP2;ratioP2
18290;SDS011;9271;48.590;8.866;2023-05-07T00:01:44;3.23;;;2.73;;
18290;SDS011;9271;48.590;8.866;2023-05-07T00:04:12;2.93;;;2.67;;
18290;SDS011;9271;48.590;8.866;2023-05-07T00:06:39;3.47;;;2.67;;
18290;SDS011;9271;48.590;8.866;2023-05-07T00:09:06;4.43;;;2.70;;
18290;SDS011;9271;48.590;8.866;2023-05-07T00:11:33;3.13;;;2.70;;
18290;SDS011;9271;48.590;8.866;2023-05-07T00:14:00;3.33;;;2.87;;
18290;SDS011;9271;48.590;8.866;2023-05-07T00:16:27;3.10;;;2.80;;
18290;SDS011;9271;48.590;8.866;2023-05-07T00:18:53;3.17;;;2.70;;
18290;SDS011;9271;48.590;8.866;2023-05-07T00:21:22;2.93;;;2.63;;
18290;SDS011;9271;48.590;8.866;2023-05-07T00:23:51;3.33;;;2.87;;
18290;SDS011;9271;48.590;8.866;2023-05-07T00:26:18;3.90;;;2.70;;
18290;SDS011;9271;48.590;8.866;2023-05-07T00:28:45;5.30;;;2.67;;
18290;SDS011;9271;48.590;8.866;2023-05-07T00:31:12;3.70;;;2.80;;
18290;SDS011;9271;48.590;8.866;2023-05-07T00:33:38;4.33;;;2.87;;
18290;SDS011;9271;48.590;8.866;2023-05-07T00:36:05;4.37;;;2.90;;
18290;SDS011;9271;48.590;8.866;2023-05-07T00:38:34;3.20;;;2.80;;
18290;SDS011;9271;48.590;8.866;2023-05-07T00:41:00;3.20;;;2.90;;
18290;SDS011;9271;48.590;8.866;2023-05-07T00:43:28;3.03;;;2.77;;
18290;SDS011;9271;48.590;8.866;2023-05-07T00:45:55;2.87;;;2.67;;
18290;SDS011;9271;48.590;8.866;2023-05-07T00:48:21;3.27;;;2.70;;
18290;SDS011;9271;48.590;8.866;2023-05-07T00:50:49;4.43;;;3.00;;
18290;SDS011;9271;48.590;8.866;2023-05-07T00:53:16;5.13;;;3.00;;
18290;SDS011;9271;48.590;8.866;2023-05-07T00:55:44;3.30;;;3.00;;
18290;SDS011;9271;48.590;8.866;2023-05-07T00:58:11;6.13;;;3.47;;
18290;SDS011;9271;48.590;8.866;2023-05-07T01:00:38;3.67;;;2.93;;
18290;SDS011;9271;48.590;8.866;2023-05-07T01:03:05;5.13;;;2.63;;
18290;SDS011;9271;48.590;8.866;2023-05-07T01:05:32;3.40;;;3.07;;
18290;SDS011;9271;48.590;8.866;2023-05-07T01:07:59;3.00;;;2.70;;
18290;SDS011;9271;48.590;8.866;2023-05-07T01:10:26;4.20;;;3.10;;
18290;SDS011;9271;48.590;8.866;2023-05-07T01:12:57;4.30;;;3.50;;
18290;SDS011;9271;48.590;8.866;2023-05-07T01:15:24;6.57;;;3.73;;
18290;SDS011;9271;48.590;8.866;2023-05-07T01:17:51;4.00;;;3.23;;
18290;SDS011;9271;48.590;8.866;2023-05-07T01:20:18;3.13;;;2.87;;
18290;SDS011;9271;48.590;8.866;2023-05-07T01:22:46;4.37;;;3.10;;
18290;SDS011;9271;48.590;8.866;2023-05-07T01:25:13;3.57;;;3.20;;
18290;SDS011;9271;48.590;8.866;2023-05-07T01:27:41;3.47;;;3.13;;
18290;SDS011;9271;48.590;8.866;2023-05-07T01:30:08;3.43;;;3.13;;
18290;SDS011;9271;48.590;8.866;2023-05-07T01:32:35;3.77;;;2.80;;
18290;SDS011;9271;48.590;8.866;2023-05-07T01:35:07;3.57;;;3.27;;
18290;SDS011;9271;48.590;8.866;2023-05-07T01:37:37;3.20;;;2.90;;
18290;SDS011;9271;48.590;8.866;2023-05-07T01:40:06;2.73;;;2.53;;
18290;SDS011;9271;48.590;8.866;2023-05-07T01:42:34;2.97;;;2.70;;
18290;SDS011;9271;48.590;8.866;2023-05-07T01:45:01;5.37;;;3.17;;
18290;SDS011;9271;48.590;8.866;2023-05-07T01:47:29;3.20;;;2.90;;
18290;SDS011;9271;48.590;8.866;2023-05-07T01:49:56;2.90;;;2.60;;
18290;SDS011;9271;48.590;8.866;2023-05-07T01:52:24;5.33;;;3.10;;
18290;SDS011;9271;48.590;8.866;2023-05-07T01:54:51;3.57;;;2.90;;
18290;SDS011;9271;48.590;8.866;2023-05-07T01:57:19;4.23;;;2.70;;
18290;SDS011;9271;48.590;8.866;2023-05-07T01:59:45;3.20;;;2.90;;
18290;SDS011;9271;48.590;8.866;2023-05-07T02:02:12;2.87;;;2.67;;
18290;SDS011;9271;48.590;8.866;2023-05-07T02:04:39;8.07;;;2.87;;
18290;SDS011;9271;48.590;8.866;2023-05-07T02:07:06;4.03;;;2.90;;
18290;SDS011;9271;48.590;8.866;2023-05-07T02:09:32;5.20;;;2.80;;
18290;SDS011;9271;48.590;8.866;2023-05-07T02:11:59;5.50;;;3.07;;
18290;SDS011;9271;48.590;8.866;2023-05-07T02:14:27;3.47;;;2.77;;
18290;SDS011;9271;48.590;8.866;2023-05-07T02:16:54;4.50;;;2.90;;
18290;SDS011;9271;48.590;8.866;2023-05-07T02:19:21;2.90;;;2.70;;
18290;SDS011;9271;48.590;8.866;2023-05-07T02:21:47;3.40;;;3.10;;
18290;SDS011;9271;48.590;8.866;2023-05-07T02:24:14;3.00;;;2.80;;
18290;SDS011;9271;48.590;8.866;2023-05-07T02:26:41;3.10;;;2.90;;
18290;SDS011;9271;48.590;8.866;2023-05-07T02:29:08;3.70;;;2.90;;
18290;SDS011;9271;48.590;8.866;2023-05-07T02:31:36;4.07;;;2.80;;
18290;SDS011;9271;48.590;8.866;2023-05-07T02:34:02;3.43;;;3.10;;
18290;SDS011;9271;48.590;8.866;2023-05-07T02:36:29;4.00;;;2.90;;
18290;SDS011;9271;48.590;8.866;2023-05-07T02:38:56;3.40;;;2.73;;
18290;SDS011;9271;48.590;8.866;2023-05-07T02:41:22;3.10;;;2.90;;
18290;SDS011;9271;48.590;8.866;2023-05-07T02:43:49;3.93;;;2.70;;
18290;SDS011;9271;48.590;8.866;2023-05-07T02:46:16;2.97;;;2.77;;
18290;SDS011;9271;48.590;8.866;2023-05-07T02:48:44;4.83;;;3.10;;
18290;SDS011;9271;48.590;8.866;2023-05-07T02:51:11;2.90;;;2.70;;
18290;SDS011;9271;48.590;8.866;2023-05-07T02:53:37;7.17;;;3.00;;
18290;SDS011;9271;48.590;8.866;2023-05-07T02:56:04;4.93;;;3.20;;
18290;SDS011;9271;48.590;8.866;2023-05-07T02:58:32;3.17;;;2.97;;
18290;SDS011;9271;48.590;8.866;2023-05-07T03:00:58;3.47;;;2.70;;
18290;SDS011;9271;48.590;8.866;2023-05-07T03:03:25;3.30;;;3.10;;
18290;SDS011;9271;48.590;8.866;2023-05-07T03:05:53;3.80;;;2.80;;
18290;SDS011;9271;48.590;8.866;2023-05-07T03:08:20;3.10;;;2.60;;
18290;SDS011;9271;48.590;8.866;2023-05-07T03:10:47;6.07;;;2.73;;
18290;SDS011;9271;48.590;8.866;2023-05-07T03:13:14;3.23;;;2.83;;
18290;SDS011;9271;48.590;8.866;2023-05-07T03:15:41;3.40;;;3.10;;
18290;SDS011;9271;48.590;8.866;2023-05-07T03:18:07;3.47;;;3.17;;
18290;SDS011;9271;48.590;8.866;2023-05-07T03:20:34;3.97;;;3.00;;
18290;SDS011;9271;48.590;8.866;2023-05-07T03:23:02;4.40;;;3.23;;
18290;SDS011;9271;48.590;8.866;2023-05-07T03:25:29;3.73;;;3.37;;
18290;SDS011;9271;48.590;8.866;2023-05-07T03:27:56;3.37;;;3.07;;
18290;SDS011;9271;48.590;8.866;2023-05-07T03:30:23;3.33;;;3.03;;
18290;SDS011;9271;48.590;8.866;2023-05-07T03:32:50;4.20;;;3.80;;
18290;SDS011;9271;48.590;8.866;2023-05-07T03:35:16;3.27;;;3.07;;
18290;SDS011;9271;48.590;8.866;2023-05-07T03:37:43;4.40;;;3.60;;
18290;SDS011;9271;48.590;8.866;2023-05-07T03:40:11;5.43;;;3.40;;
18290;SDS011;9271;48.590;8.866;2023-05-07T03:42:38;3.63;;;3.33;;
18290;SDS011;9271;48.590;8.866;2023-05-07T03:45:05;4.33;;;3.40;;
18290;SDS011;9271;48.590;8.866;2023-05-07T03:47:33;3.30;;;3.00;;
18290;SDS011;9271;48.590;8.866;2023-05-07T03:49:59;4.37;;;3.00;;
18290;SDS011;9271;48.590;8.866;2023-05-07T03:52:26;3.30;;;3.10;;
18290;SDS011;9271;48.590;8.866;2023-05-07T03:54:53;3.60;;;3.30;;
18290;SDS011;9271;48.590;8.866;2023-05-07T03:57:21;3.70;;;3.30;;
18290;SDS011;9271;48.590;8.866;2023-05-07T03:59:48;5.53;;;3.10;;
18290;SDS011;9271;48.590;8.866;2023-05-07T04:02:14;3.90;;;3.40;;
18290;SDS011;9271;48.590;8.866;2023-05-07T04:04:41;4.90;;;3.03;;
18290;SDS011;9271;48.590;8.866;2023-05-07T04:07:08;4.03;;;3.50;;
18290;SDS011;9271;48.590;8.866;2023-05-07T04:09:34;4.03;;;3.63;;
18290;SDS011;9271;48.590;8.866;2023-05-07T04:12:01;3.60;;;3.30;;
18290;SDS011;9271;48.590;8.866;2023-05-07T04:14:29;4.03;;;3.70;;
18290;SDS011;9271;48.590;8.866;2023-05-07T04:16:57;3.97;;;3.10;;
18290;SDS011;9271;48.590;8.866;2023-05-07T04:19:24;5.03;;;3.30;;
18290;SDS011;9271;48.590;8.866;2023-05-07T04:21:50;4.07;;;3.37;;
18290;SDS011;9271;48.590;8.866;2023-05-07T04:24:17;3.60;;;3.30;;
18290;SDS011;9271;48.590;8.866;2023-05-07T04:26:44;4.00;;;3.57;;
18290;SDS011;9271;48.590;8.866;2023-05-07T04:29:10;3.77;;;3.23;;
18290;SDS011;9271;48.590;8.866;2023-05-07T04:31:38;4.07;;;3.73;;
18290;SDS011;9271;48.590;8.866;2023-05-07T04:34:05;4.50;;;3.47;;
18290;SDS011;9271;48.590;8.866;2023-05-07T04:36:32;6.30;;;3.70;;
18290;SDS011;9271;48.590;8.866;2023-05-07T04:38:59;4.40;;;4.00;;
18290;SDS011;9271;48.590;8.866;2023-05-07T04:41:25;3.73;;;3.43;;
18290;SDS011;9271;48.590;8.866;2023-05-07T04:43:52;4.40;;;3.43;;
18290;SDS011;9271;48.590;8.866;2023-05-07T04:46:19;3.60;;;3.20;;
18290;SDS011;9271;48.590;8.866;2023-05-07T04:48:47;3.33;;;3.03;;
18290;SDS011;9271;48.590;8.866;2023-05-07T04:51:14;3.20;;;2.90;;
18290;SDS011;9271;48.590;8.866;2023-05-07T04:53:41;4.70;;;3.30;;
18290;SDS011;9271;48.590;8.866;2023-05-07T04:56:08;4.33;;;3.00;;
18290;SDS011;9271;48.590;8.866;2023-05-07T04:58:35;3.87;;;3.50;;
18290;SDS011;9271;48.590;8.866;2023-05-07T05:01:01;4.57;;;3.20;;
18290;SDS011;9271;48.590;8.866;2023-05-07T05:03:28;3.03;;;2.83;;
18290;SDS011;9271;48.590;8.866;2023-05-07T05:05:57;3.10;;;2.90;;
18290;SDS011;9271;48.590;8.866;2023-05-07T05:08:24;4.13;;;2.90;;
18290;SDS011;9271;48.590;8.866;2023-05-07T05:10:51;5.57;;;3.10;;
18290;SDS011;9271;48.590;8.866;2023-05-07T05:13:18;2.97;;;2.77;;
18290;SDS011;9271;48.590;8.866;2023-05-07T05:15:45;2.97;;;2.67;;
18290;SDS011;9271;48.590;8.866;2023-05-07T05:18:12;2.93;;;2.63;;
18290;SDS011;9271;48.590;8.866;2023-05-07T05:20:38;3.20;;;2.90;;
18290;SDS011;9271;48.590;8.866;2023-05-07T05:23:07;3.83;;;2.93;;
18290;SDS011;9271;48.590;8.866;2023-05-07T05:25:34;5.67;;;3.03;;
18290;SDS011;9271;48.590;8.866;2023-05-07T05:28:00;3.30;;;3.00;;
18290;SDS011;9271;48.590;8.866;2023-05-07T05:30:27;3.03;;;2.83;;
18290;SDS011;9271;48.590;8.866;2023-05-07T05:32:54;3.70;;;2.97;;
18290;SDS011;9271;48.590;8.866;2023-05-07T05:35:21;4.03;;;2.63;;
18290;SDS011;9271;48.590;8.866;2023-05-07T05:37:47;3.17;;;2.97;;
18290;SDS011;9271;48.590;8.866;2023-05-07T05:40:16;3.27;;;2.77;;
18290;SDS011;9271;48.590;8.866;2023-05-07T05:42:42;3.70;;;2.80;;
18290;SDS011;9271;48.590;8.866;2023-05-07T05:45:09;3.77;;;3.10;;
18290;SDS011;9271;48.590;8.866;2023-05-07T05:47:37;3.33;;;3.03;;
18290;SDS011;9271;48.590;8.866;2023-05-07T05:50:05;3.00;;;2.80;;
18290;SDS011;9271;48.590;8.866;2023-05-07T05:52:32;3.10;;;2.80;;
18290;SDS011;9271;48.590;8.866;2023-05-07T05:54:59;4.57;;;3.23;;
18290;SDS011;9271;48.590;8.866;2023-05-07T05:57:27;3.73;;;3.30;;
18290;SDS011;9271;48.590;8.866;2023-05-07T05:59:54;3.83;;;3.10;;
18290;SDS011;9271;48.590;8.866;2023-05-07T06:02:21;5.40;;;2.87;;
18290;SDS011;9271;48.590;8.866;2023-05-07T06:04:47;3.37;;;2.93;;
18290;SDS011;9271;48.590;8.866;2023-05-07T06:07:14;4.37;;;3.27;;
18290;SDS011;9271;48.590;8.866;2023-05-07T06:09:41;3.07;;;2.87;;
18290;SDS011;9271;48.590;8.866;2023-05-07T06:12:07;4.53;;;3.13;;
18290;SDS011;9271;48.590;8.866;2023-05-07T06:14:35;3.30;;;3.07;;
18290;SDS011;9271;48.590;8.866;2023-05-07T06:17:02;3.20;;;2.90;;
18290;SDS011;9271;48.590;8.866;2023-05-07T06:19:28;3.43;;;3.17;;
18290;SDS011;9271;48.590;8.866;2023-05-07T06:21:55;3.07;;;2.87;;
18290;SDS011;9271;48.590;8.866;2023-05-07T06:24:22;3.17;;;2.90;;
18290;SDS011;9271;48.590;8.866;2023-05-07T06:26:50;3.40;;;3.10;;
18290;SDS011;9271;48.590;8.866;2023-05-07T06:29:16;3.30;;;3.10;;
18290;SDS011;9271;48.590;8.866;2023-05-07T06:31:44;3.73;;;3.17;;
18290;SDS011;9271;48.590;8.866;2023-05-07T06:34:11;4.00;;;3.00;;
18290;SDS011;9271;48.590;8.866;2023-05-07T06:36:40;3.43;;;2.93;;
18290;SDS011;9271;48.590;8.866;2023-05-07T06:39:06;3.90;;;3.13;;
18290;SDS011;9271;48.590;8.866;2023-05-07T06:41:33;3.40;;;3.10;;
18290;SDS011;9271;48.590;8.866;2023-05-07T06:44:00;3.17;;;2.90;;
18290;SDS011;9271;48.590;8.866;2023-05-07T06:46:27;3.23;;;2.93;;
18290;SDS011;9271;48.590;8.866;2023-05-07T06:48:56;5.13;;;3.17;;
18290;SDS011;9271;48.590;8.866;2023-05-07T06:51:23;3.30;;;2.93;;
18290;SDS011;9271;48.590;8.866;2023-05-07T06:53:50;3.20;;;3.00;;
18290;SDS011;9271;48.590;8.866;2023-05-07T06:56:16;3.87;;;3.00;;
18290;SDS011;9271;48.590;8.866;2023-05-07T06:58:43;4.17;;;2.97;;
18290;SDS011;9271;48.590;8.866;2023-05-07T07:01:10;3.97;;;3.23;;
18290;SDS011;9271;48.590;8.866;2023-05-07T07:03:36;4.13;;;3.00;;
18290;SDS011;9271;48.590;8.866;2023-05-07T07:06:05;5.37;;;3.20;;
18290;SDS011;9271;48.590;8.866;2023-05-07T07:08:32;4.00;;;2.77;;
18290;SDS011;9271;48.590;8.866;2023-05-07T07:10:59;3.37;;;3.07;;
18290;SDS011;9271;48.590;8.866;2023-05-07T07:13:26;3.03;;;2.67;;
18290;SDS011;9271;48.590;8.866;2023-05-07T07:15:52;2.97;;;2.63;;
18290;SDS011;9271;48.590;8.866;2023-05-07T07:18:19;3.00;;;2.80;;
18290;SDS011;9271;48.590;8.866;2023-05-07T07:20:46;4.33;;;3.00;;
18290;SDS011;9271;48.590;8.866;2023-05-07T07:23:14;3.00;;;2.80;;
18290;SDS011;9271;48.590;8.866;2023-05-07T07:25:40;3.37;;;3.07;;
18290;SDS011;9271;48.590;8.866;2023-05-07T07:28:07;3.07;;;2.77;;
18290;SDS011;9271;48.590;8.866;2023-05-07T07:30:35;3.50;;;2.53;;
18290;SDS011;9271;48.590;8.866;2023-05-07T07:33:02;3.10;;;2.90;;
18290;SDS011;9271;48.590;8.866;2023-05-07T07:35:30;2.80;;;2.60;;
18290;SDS011;9271;48.590;8.866;2023-05-07T07:37:57;2.80;;;2.57;;
18290;SDS011;9271;48.590;8.866;2023-05-07T07:40:25;3.37;;;3.07;;
18290;SDS011;9271;48.590;8.866;2023-05-07T07:42:53;5.10;;;3.07;;
18290;SDS011;9271;48.590;8.866;2023-05-07T07:45:20;3.17;;;2.83;;
18290;SDS011;9271;48.590;8.866;2023-05-07T07:47:47;4.27;;;2.90;;
18290;SDS011;9271;48.590;8.866;2023-05-07T07:50:13;5.63;;;2.90;;
18290;SDS011;9271;48.590;8.866;2023-05-07T07:52:40;3.07;;;2.77;;
18290;SDS011;9271;48.590;8.866;2023-05-07T07:55:07;3.40;;;3.10;;
18290;SDS011;9271;48.590;8.866;2023-05-07T07:57:36;3.40;;;3.10;;
18290;SDS011;9271;48.590;8.866;2023-05-07T08:00:03;3.37;;;3.00;;
18290;SDS011;9271;48.590;8.866;2023-05-07T08:02:32;3.60;;;2.78;;
18290;SDS011;9271;48.590;8.866;2023-05-07T08:04:58;2.95;;;2.65;;
18290;SDS011;9271;48.590;8.866;2023-05-07T08:07:25;2.85;;;2.58;;
18290;SDS011;9271;48.590;8.866;2023-05-07T08:09:52;2.83;;;2.45;;
18290;SDS011;9271;48.590;8.866;2023-05-07T08:12:19;4.60;;;2.72;;
18290;SDS011;9271;48.590;8.866;2023-05-07T08:14:47;2.90;;;2.60;;
18290;SDS011;9271;48.590;8.866;2023-05-07T08:17:14;3.65;;;2.70;;
18290;SDS011;9271;48.590;8.866;2023-05-07T08:19:41;5.63;;;2.70;;
18290;SDS011;9271;48.590;8.866;2023-05-07T08:22:08;3.38;;;3.05;;
18290;SDS011;9271;48.590;8.866;2023-05-07T08:24:35;3.20;;;2.90;;
18290;SDS011;9271;48.590;8.866;2023-05-07T08:27:02;2.88;;;2.67;;
18290;SDS011;9271;48.590;8.866;2023-05-07T08:29:29;3.53;;;2.83;;
18290;SDS011;9271;48.590;8.866;2023-05-07T08:31:57;4.75;;;3.20;;
18290;SDS011;9271;48.590;8.866;2023-05-07T08:34:24;3.20;;;2.90;;
18290;SDS011;9271;48.590;8.866;2023-05-07T08:36:50;3.45;;;2.80;;
18290;SDS011;9271;48.590;8.866;2023-05-07T08:39:17;3.28;;;2.83;;
18290;SDS011;9271;48.590;8.866;2023-05-07T08:41:44;3.20;;;2.63;;
18290;SDS011;9271;48.590;8.866;2023-05-07T08:44:12;3.47;;;2.33;;
18290;SDS011;9271;48.590;8.866;2023-05-07T08:46:39;4.00;;;2.70;;
18290;SDS011;9271;48.590;8.866;2023-05-07T08:49:09;5.07;;;2.70;;
18290;SDS011;9271;48.590;8.866;2023-05-07T08:51:36;5.07;;;2.55;;
18290;SDS011;9271;48.590;8.866;2023-05-07T08:54:03;2.78;;;2.47;;
18290;SDS011;9271;48.590;8.866;2023-05-07T08:56:31;5.20;;;2.47;;
18290;SDS011;9271;48.590;8.866;2023-05-07T08:58:58;2.30;;;2.10;;
18290;SDS011;9271;48.590;8.866;2023-05-07T09:01:25;3.97;;;2.70;;
18290;SDS011;9271;48.590;8.866;2023-05-07T09:03:52;2.72;;;2.22;;
18290;SDS011;9271;48.590;8.866;2023-05-07T09:06:21;3.15;;;2.53;;
18290;SDS011;9271;48.590;8.866;2023-05-07T09:08:49;2.45;;;2.10;;
18290;SDS011;9271;48.590;8.866;2023-05-07T09:11:16;2.40;;;2.20;;
18290;SDS011;9271;48.590;8.866;2023-05-07T09:13:46;2.35;;;2.15;;
18290;SDS011;9271;48.590;8.866;2023-05-07T09:16:13;2.35;;;2.10;;
18290;SDS011;9271;48.590;8.866;2023-05-07T09:18:41;3.40;;;2.00;;
18290;SDS011;9271;48.590;8.866;2023-05-07T09:21:09;2.60;;;2.40;;
18290;SDS011;9271;48.590;8.866;2023-05-07T09:23:38;3.30;;;2.08;;
18290;SDS011;9271;48.590;8.866;2023-05-07T09:26:06;2.78;;;2.10;;
18290;SDS011;9271;48.590;8.866;2023-05-07T09:28:37;2.13;;;2.00;;
18290;SDS011;9271;48.590;8.866;2023-05-07T09:31:05;2.95;;;2.53;;
18290;SDS011;9271;48.590;8.866;2023-05-07T09:33:32;2.28;;;2.08;;
18290;SDS011;9271;48.590;8.866;2023-05-07T09:35:59;2.00;;;1.88;;
18290;SDS011;9271;48.590;8.866;2023-05-07T09:38:28;1.95;;;1.85;;
18290;SDS011;9271;48.590;8.866;2023-05-07T09:41:03;2.17;;;1.92;;
18290;SDS011;9271;48.590;8.866;2023-05-07T09:43:33;1.95;;;1.85;;
18290;SDS011;9271;48.590;8.866;2023-05-07T09:46:02;1.92;;;1.80;;
18290;SDS011;9271;48.590;8.866;2023-05-07T09:48:31;3.38;;;2.30;;
18290;SDS011;9271;48.590;8.866;2023-05-07T09:51:01;3.78;;;2.10;;
18290;SDS011;9271;48.590;8.866;2023-05-07T09:53:29;3.53;;;2.25;;
18290;SDS011;9271;48.590;8.866;2023-05-07T09:55:57;3.60;;;2.13;;
18290;SDS011;9271;48.590;8.866;2023-05-07T09:58:26;3.60;;;1.98;;
18290;SDS011;9271;48.590;8.866;2023-05-07T10:00:53;1.90;;;1.80;;
18290;SDS011;9271;48.590;8.866;2023-05-07T10:03:22;2.10;;;1.90;;
18290;SDS011;9271;48.590;8.866;2023-05-07T10:05:52;2.88;;;2.10;;
18290;SDS011;9271;48.590;8.866;2023-05-07T10:08:20;2.10;;;1.90;;
18290;SDS011;9271;48.590;8.866;2023-05-07T10:10:47;2.65;;;1.90;;
18290;SDS011;9271;48.590;8.866;2023-05-07T10:13:15;2.20;;;2.00;;
18290;SDS011;9271;48.590;8.866;2023-05-07T10:15:44;3.38;;;1.95;;
18290;SDS011;9271;48.590;8.866;2023-05-07T10:18:11;2.22;;;1.80;;
18290;SDS011;9271;48.590;8.866;2023-05-07T10:20:39;3.97;;;2.17;;
18290;SDS011;9271;48.590;8.866;2023-05-07T10:23:08;1.90;;;1.80;;
18290;SDS011;9271;48.590;8.866;2023-05-07T10:25:40;2.05;;;1.95;;
18290;SDS011;9271;48.590;8.866;2023-05-07T10:28:08;3.88;;;1.60;;
18290;SDS011;9271;48.590;8.866;2023-05-07T10:30:38;1.92;;;1.70;;
18290;SDS011;9271;48.590;8.866;2023-05-07T10:33:16;1.88;;;1.70;;
18290;SDS011;9271;48.590;8.866;2023-05-07T10:35:48;3.80;;;1.83;;
18290;SDS011;9271;48.590;8.866;2023-05-07T10:38:15;1.95;;;1.80;;
18290;SDS011;9271;48.590;8.866;2023-05-07T10:40:42;1.73;;;1.63;;
18290;SDS011;9271;48.590;8.866;2023-05-07T10:43:09;1.52;;;1.42;;
18290;SDS011;9271;48.590;8.866;2023-05-07T10:45:36;1.50;;;1.40;;
18290;SDS011;9271;48.590;8.866;2023-05-07T10:48:06;1.85;;;1.60;;
18290;SDS011;9271;48.590;8.866;2023-05-07T10:50:35;1.88;;;1.75;;
18290;SDS011;9271;48.590;8.866;2023-05-07T10:53:24;1.70;;;1.60;;
18290;SDS011;9271;48.590;8.866;2023-05-07T10:58:52;2.05;;;1.73;;
18290;SDS011;9271;48.590;8.866;2023-05-07T11:04:17;1.70;;;1.52;;
18290;SDS011;9271;48.590;8.866;2023-05-07T11:09:56;2.88;;;1.52;;
18290;SDS011;9271;48.590;8.866;2023-05-07T11:15:36;1.92;;;1.50;;
18290;SDS011;9271;48.590;8.866;2023-05-07T11:18:11;2.70;;;1.80;;
18290;SDS011;9271;48.590;8.866;2023-05-07T11:20:45;3.70;;;1.90;;
18290;SDS011;9271;48.590;8.866;2023-05-07T11:26:43;1.90;;;1.80;;
18290;SDS011;9271;48.590;8.866;2023-05-07T11:29:11;2.00;;;1.90;;
18290;SDS011;9271;48.590;8.866;2023-05-07T11:31:39;2.13;;;1.83;;
18290;SDS011;9271;48.590;8.866;2023-05-07T11:34:06;4.97;;;2.30;;
18290;SDS011;9271;48.590;8.866;2023-05-07T11:36:33;2.33;;;2.00;;
18290;SDS011;9271;48.590;8.866;2023-05-07T11:39:00;2.07;;;1.90;;
18290;SDS011;9271;48.590;8.866;2023-05-07T11:41:33;2.10;;;1.90;;
18290;SDS011;9271;48.590;8.866;2023-05-07T11:44:02;2.67;;;2.10;;
18290;SDS011;9271;48.590;8.866;2023-05-07T11:46:29;2.40;;;2.10;;
18290;SDS011;9271;48.590;8.866;2023-05-07T11:48:56;2.93;;;2.10;;
18290;SDS011;9271;48.590;8.866;2023-05-07T11:51:23;3.00;;;2.27;;
18290;SDS011;9271;48.590;8.866;2023-05-07T11:53:51;4.50;;;2.37;;
18290;SDS011;9271;48.590;8.866;2023-05-07T11:56:19;4.57;;;2.30;;
18290;SDS011;9271;48.590;8.866;2023-05-07T11:58:46;2.90;;;2.07;;
18290;SDS011;9271;48.590;8.866;2023-05-07T12:01:16;2.13;;;1.93;;
18290;SDS011;9271;48.590;8.866;2023-05-07T12:03:43;4.40;;;1.80;;
18290;SDS011;9271;48.590;8.866;2023-05-07T12:06:13;2.07;;;1.90;;
18290;SDS011;9271;48.590;8.866;2023-05-07T12:08:41;2.00;;;1.80;;
18290;SDS011;9271;48.590;8.866;2023-05-07T12:11:09;2.23;;;1.60;;
18290;SDS011;9271;48.590;8.866;2023-05-07T12:13:42;4.03;;;1.80;;
18290;SDS011;9271;48.590;8.866;2023-05-07T12:16:09;2.43;;;1.90;;
18290;SDS011;9271;48.590;8.866;2023-05-07T12:18:38;2.73;;;2.17;;
18290;SDS011;9271;48.590;8.866;2023-05-07T12:21:05;3.37;;;2.07;;
18290;SDS011;9271;48.590;8.866;2023-05-07T12:23:33;4.10;;;2.20;;
18290;SDS011;9271;48.590;8.866;2023-05-07T12:26:01;2.00;;;1.80;;
18290;SDS011;9271;48.590;8.866;2023-05-07T12:28:29;2.90;;;1.97;;
18290;SDS011;9271;48.590;8.866;2023-05-07T12:30:56;1.70;;;1.60;;
18290;SDS011;9271;48.590;8.866;2023-05-07T12:33:23;2.00;;;1.90;;
18290;SDS011;9271;48.590;8.866;2023-05-07T12:35:53;3.00;;;2.50;;
18290;SDS011;9271;48.590;8.866;2023-05-07T12:38:20;2.97;;;2.40;;
18290;SDS011;9271;48.590;8.866;2023-05-07T12:40:48;6.43;;;2.70;;
18290;SDS011;9271;48.590;8.866;2023-05-07T12:43:16;2.30;;;2.10;;
18290;SDS011;9271;48.590;8.866;2023-05-07T12:45:43;3.37;;;2.10;;
18290;SDS011;9271;48.590;8.866;2023-05-07T12:48:11;3.20;;;1.90;;
18290;SDS011;9271;48.590;8.866;2023-05-07T12:50:38;3.07;;;2.10;;
18290;SDS011;9271;48.590;8.866;2023-05-07T12:53:06;2.57;;;2.30;;
18290;SDS011;9271;48.590;8.866;2023-05-07T12:55:42;2.53;;;2.17;;
18290;SDS011;9271;48.590;8.866;2023-05-07T12:58:14;2.67;;;2.40;;
18290;SDS011;9271;48.590;8.866;2023-05-07T13:00:45;3.37;;;2.70;;
18290;SDS011;9271;48.590;8.866;2023-05-07T13:03:20;3.53;;;2.97;;
18290;SDS011;9271;48.590;8.866;2023-05-07T13:05:49;4.87;;;3.37;;
18290;SDS011;9271;48.590;8.866;2023-05-07T13:08:30;3.50;;;3.20;;
18290;SDS011;9271;48.590;8.866;2023-05-07T13:11:01;6.40;;;3.80;;
18290;SDS011;9271;48.590;8.866;2023-05-07T13:13:29;6.23;;;4.10;;
18290;SDS011;9271;48.590;8.866;2023-05-07T13:15:56;5.93;;;4.00;;
18290;SDS011;9271;48.590;8.866;2023-05-07T13:18:23;3.50;;;3.20;;
18290;SDS011;9271;48.590;8.866;2023-05-07T13:20:50;6.13;;;3.60;;
18290;SDS011;9271;48.590;8.866;2023-05-07T13:23:17;6.20;;;3.33;;
18290;SDS011;9271;48.590;8.866;2023-05-07T13:25:45;3.43;;;2.90;;
18290;SDS011;9271;48.590;8.866;2023-05-07T13:28:12;4.60;;;2.90;;
18290;SDS011;9271;48.590;8.866;2023-05-07T13:30:39;4.10;;;2.73;;
18290;SDS011;9271;48.590;8.866;2023-05-07T13:33:06;4.03;;;3.10;;
18290;SDS011;9271;48.590;8.866;2023-05-07T13:35:33;4.27;;;3.73;;
18290;SDS011;9271;48.590;8.866;2023-05-07T13:38:00;5.23;;;3.70;;
18290;SDS011;9271;48.590;8.866;2023-05-07T13:40:26;4.33;;;3.43;;
18290;SDS011;9271;48.590;8.866;2023-05-07T13:42:56;5.70;;;3.80;;
18290;SDS011;9271;48.590;8.866;2023-05-07T13:45:24;5.27;;;4.40;;
18290;SDS011;9271;48.590;8.866;2023-05-07T13:47:51;8.33;;;4.50;;
18290;SDS011;9271;48.590;8.866;2023-05-07T13:50:18;4.60;;;4.20;;
18290;SDS011;9271;48.590;8.866;2023-05-07T13:52:45;6.47;;;4.37;;
18290;SDS011;9271;48.590;8.866;2023-05-07T13:55:15;3.73;;;3.33;;
18290;SDS011;9271;48.590;8.866;2023-05-07T13:57:42;10.17;;;4.97;;
18290;SDS011;9271;48.590;8.866;2023-05-07T14:00:11;6.10;;;4.10;;
18290;SDS011;9271;48.590;8.866;2023-05-07T14:02:40;6.00;;;4.50;;
18290;SDS011;9271;48.590;8.866;2023-05-07T14:05:07;4.73;;;4.10;;
18290;SDS011;9271;48.590;8.866;2023-05-07T14:07:35;7.27;;;4.17;;
18290;SDS011;9271;48.590;8.866;2023-05-07T14:10:02;6.47;;;4.50;;
18290;SDS011;9271;48.590;8.866;2023-05-07T14:12:29;7.50;;;4.53;;
18290;SDS011;9271;48.590;8.866;2023-05-07T14:14:56;8.23;;;4.90;;
18290;SDS011;9271;48.590;8.866;2023-05-07T14:17:24;8.13;;;4.70;;
18290;SDS011;9271;48.590;8.866;2023-05-07T14:19:52;4.30;;;3.90;;
18290;SDS011;9271;48.590;8.866;2023-05-07T14:22:19;4.53;;;3.90;;
18290;SDS011;9271;48.590;8.866;2023-05-07T14:24:46;5.10;;;4.60;;
18290;SDS011;9271;48.590;8.866;2023-05-07T14:27:13;4.97;;;3.80;;
18290;SDS011;9271;48.590;8.866;2023-05-07T14:29:43;3.57;;;3.20;;
18290;SDS011;9271;48.590;8.866;2023-05-07T14:32:10;2.87;;;2.43;;
18290;SDS011;9271;48.590;8.866;2023-05-07T14:34:38;2.53;;;2.33;;
18290;SDS011;9271;48.590;8.866;2023-05-07T14:37:05;2.83;;;2.00;;
18290;SDS011;9271;48.590;8.866;2023-05-07T14:39:32;2.40;;;2.20;;
18290;SDS011;9271;48.590;8.866;2023-05-07T14:41:58;2.57;;;2.30;;
18290;SDS011;9271;48.590;8.866;2023-05-07T14:44:25;3.47;;;2.30;;
18290;SDS011;9271;48.590;8.866;2023-05-07T14:46:52;3.37;;;3.00;;
18290;SDS011;9271;48.590;8.866;2023-05-07T14:49:18;4.33;;;3.20;;
18290;SDS011;9271;48.590;8.866;2023-05-07T14:51:47;4.63;;;2.60;;
18290;SDS011;9271;48.590;8.866;2023-05-07T14:54:13;2.97;;;2.47;;
18290;SDS011;9271;48.590;8.866;2023-05-07T14:56:40;3.47;;;2.50;;
18290;SDS011;9271;48.590;8.866;2023-05-07T14:59:07;2.60;;;2.40;;
18290;SDS011;9271;48.590;8.866;2023-05-07T15:01:35;3.10;;;2.80;;
18290;SDS011;9271;48.590;8.866;2023-05-07T15:04:02;3.67;;;2.50;;
18290;SDS011;9271;48.590;8.866;2023-05-07T15:06:29;2.63;;;2.20;;
18290;SDS011;9271;48.590;8.866;2023-05-07T15:08:58;2.37;;;2.10;;
18290;SDS011;9271;48.590;8.866;2023-05-07T15:11:24;2.23;;;2.00;;
18290;SDS011;9271;48.590;8.866;2023-05-07T15:13:51;2.13;;;2.00;;
18290;SDS011;9271;48.590;8.866;2023-05-07T15:16:18;4.43;;;2.40;;
18290;SDS011;9271;48.590;8.866;2023-05-07T15:18:45;2.83;;;2.30;;